Time;durP1;ratioP1;P1;durP2;ratioP2;P2;SDS_P1;SDS_P2;PMS_P1;PMS_P2;Temp;Humidity;BMP_temperature;BMP_pressure;BME280_temperature;BME280_humidity;BME280_pressure;Samples;Min_cycle;Max_cycle;Signal;HPM_P1;HPM_P2
2023/02/14 00:00:31;;;;;;;24.17;9.97;;;7.50;99.90;;;;;;5097363;28;20415;-59
2023/02/14 00:02:58;;;;;;;18.33;9.37;;;7.70;99.90;;;;;;5097017;28;20457;-60
2023/02/14 00:05:25;;;;;;;24.90;11.63;;;7.50;99.90;;;;;;5096599;28;20517;-63
2023/02/14 00:07:52;;;;;;;25.93;9.73;;;7.40;99.90;;;;;;5097014;28;20447;-57
2023/02/14 00:10:19;;;;;;;22.40;10.27;;;7.30;99.90;;;;;;5096758;28;20442;-62
2023/02/14 00:12:46;;;;;;;19.57;9.63;;;7.60;99.90;;;;;;5096535;28;20461;-62
2023/02/14 00:15:23;;;;;;;24.53;12.00;;;7.60;99.90;;;;;;5097275;28;20458;-62
2023/02/14 00:17:51;;;;;;;27.10;10.97;;;7.70;99.90;;;;;;5096569;28;20458;-62
2023/02/14 00:20:18;;;;;;;22.60;9.90;;;7.60;99.90;;;;;;5096350;28;20450;-63
2023/02/14 00:22:45;;;;;;;24.07;10.30;;;;;;;;;;5096383;28;20450;-62
2023/02/14 00:25:13;;;;;;;25.13;10.53;;;7.40;99.90;;;;;;5096632;28;20486;-61
2023/02/14 00:27:40;;;;;;;22.87;9.37;;;;;;;;;;5096674;28;20509;-63
2023/02/14 00:30:08;;;;;;;29.60;11.40;;;7.50;99.90;;;;;;5096472;28;20485;-61
2023/02/14 00:32:38;;;;;;;23.07;11.40;;;7.60;99.90;;;;;;5096184;28;20426;-63
2023/02/14 00:35:05;;;;;;;28.50;11.90;;;7.40;99.90;;;;;;5096681;28;20466;-62
2023/02/14 00:37:32;;;;;;;16.83;9.97;;;;;;;;;;5096259;28;20450;-62
2023/02/14 00:39:59;;;;;;;24.20;9.67;;;7.40;99.90;;;;;;5096560;28;20478;-59
2023/02/14 00:42:26;;;;;;;22.57;9.67;;;;;;;;;;5096751;28;20429;-61
2023/02/14 00:44:53;;;;;;;20.10;8.70;;;;;;;;;;5096410;28;20477;-63
2023/02/14 00:47:20;;;;;;;28.77;10.53;;;;;;;;;;5096057;28;20522;-61
2023/02/14 00:49:49;;;;;;;20.37;10.80;;;7.40;99.90;;;;;;5096209;28;20537;-61
2023/02/14 00:52:16;;;;;;;26.53;9.47;;;;;;;;;;5096429;28;20415;-62
2023/02/14 00:54:43;;;;;;;31.30;10.87;;;7.50;99.90;;;;;;5095924;28;20474;-61
2023/02/14 00:57:10;;;;;;;23.73;9.47;;;7.50;99.90;;;;;;5096469;28;20469;-62
2023/02/14 00:59:36;;;;;;;19.80;8.00;;;7.50;99.90;;;;;;5096363;28;20466;-61
2023/02/14 01:02:03;;;;;;;20.60;8.67;;;7.50;99.90;;;;;;5095955;28;20415;-61
2023/02/14 01:04:30;;;;;;;23.80;9.30;;;7.60;99.90;;;;;;5095792;28;20482;-61
2023/02/14 01:06:58;;;;;;;18.73;9.53;;;7.40;99.90;;;;;;5100090;28;20450;-61
2023/02/14 01:09:25;;;;;;;22.13;9.77;;;7.50;99.90;;;;;;5100160;28;20446;-58
2023/02/14 01:11:52;;;;;;;14.50;7.70;;;7.30;99.90;;;;;;5100054;28;20466;-61
2023/02/14 01:14:19;;;;;;;21.17;10.30;;;;;;;;;;5099962;28;20438;-64
2023/02/14 01:16:46;;;;;;;21.07;9.30;;;;;;;;;;5100143;28;20449;-62
2023/02/14 01:19:13;;;;;;;20.07;9.90;;;7.30;99.90;;;;;;5099579;28;20453;-59
2023/02/14 01:21:41;;;;;;;20.47;10.53;;;7.40;99.90;;;;;;5100428;28;20438;-59
2023/02/14 01:24:10;;;;;;;25.23;9.47;;;7.40;99.90;;;;;;5100232;28;20513;-64
2023/02/14 01:26:39;;;;;;;27.17;11.67;;;7.40;99.90;;;;;;5099942;28;20442;-61
2023/02/14 01:29:06;;;;;;;17.50;9.77;;;7.40;99.90;;;;;;5100039;28;20458;-61
2023/02/14 01:31:35;;;;;;;19.37;10.40;;;7.40;99.90;;;;;;5099820;28;20458;-63
2023/02/14 01:34:03;;;;;;;22.90;10.50;;;;;;;;;;5099613;28;20456;-60
2023/02/14 01:36:32;;;;;;;22.70;10.40;;;7.40;99.90;;;;;;5099543;28;20494;-62
2023/02/14 01:39:04;;;;;;;17.43;10.00;;;7.30;99.90;;;;;;5099571;28;20494;-61
2023/02/14 01:41:34;;;;;;;24.30;11.10;;;8.10;99.90;;;;;;5100287;28;20429;-61
2023/02/14 01:44:05;;;;;;;18.87;10.30;;;7.40;99.90;;;;;;5100320;28;20458;-58
2023/02/14 01:46:34;;;;;;;26.37;11.17;;;7.40;99.90;;;;;;5099679;28;20426;-55
2023/02/14 01:49:09;;;;;;;26.37;12.10;;;7.40;99.90;;;;;;5099578;28;20469;-61
2023/02/14 01:51:39;;;;;;;24.43;11.90;;;7.50;99.90;;;;;;5099274;28;20453;-61
2023/02/14 01:54:08;;;;;;;25.33;9.83;;;7.40;99.90;;;;;;5099379;28;20430;-63
2023/02/14 01:56:40;;;;;;;21.70;9.73;;;7.30;99.90;;;;;;5099732;28;20407;-63
2023/02/14 01:59:10;;;;;;;19.93;10.00;;;7.20;99.90;;;;;;5099721;28;20437;-62
2023/02/14 02:01:37;;;;;;;19.70;9.43;;;7.40;99.90;;;;;;5099556;28;20469;-61
2023/02/14 02:04:10;;;;;;;20.73;9.37;;;7.40;99.90;;;;;;5099289;28;20450;-61
2023/02/14 02:06:40;;;;;;;21.67;11.67;;;7.30;99.90;;;;;;5098981;28;20500;-62
2023/02/14 02:09:12;;;;;;;30.97;11.00;;;7.60;99.90;;;;;;5099174;28;20406;-61
2023/02/14 02:11:42;;;;;;;27.33;9.47;;;7.30;99.90;;;;;;5099101;28;20451;-61
2023/02/14 02:14:13;;;;;;;21.97;11.40;;;7.30;99.90;;;;;;5099326;28;20431;-60
2023/02/14 02:17:11;;;;;;;28.87;12.40;;;7.30;99.90;;;;;;5098318;28;20415;-59
2023/02/14 02:20:23;;;;;;;20.87;10.90;;;7.30;99.90;;;;;;5098676;28;20505;-61
2023/02/14 02:23:23;;;;;;;23.57;10.30;;;7.30;99.90;;;;;;5084892;28;20461;-63
2023/02/14 02:26:23;;;;;;;19.63;11.07;;;7.20;99.90;;;;;;5099002;28;20462;-61
2023/02/14 02:29:34;;;;;;;21.03;10.50;;;7.30;99.90;;;;;;5081429;28;20468;-63
2023/02/14 02:32:34;;;;;;;20.53;9.33;;;7.30;99.90;;;;;;5074387;28;20474;-60
2023/02/14 02:35:20;;;;;;;23.50;12.00;;;7.40;99.90;;;;;;5060506;28;20456;-62
2023/02/14 02:38:04;;;;;;;21.43;10.87;;;7.40;99.90;;;;;;5098717;28;20505;-62
2023/02/14 02:40:43;;;;;;;16.87;8.53;;;7.30;99.90;;;;;;5098168;28;20454;-64
2023/02/14 02:43:19;;;;;;;19.67;10.60;;;7.30;99.90;;;;;;5093238;28;20782;-62
2023/02/14 02:48:41;;;;;;;19.60;11.37;;;7.30;99.90;;;;;;5091342;28;20394;-58
2023/02/14 02:54:02;;;;;;;23.67;10.57;;;7.30;99.90;;;;;;5067970;28;20431;-64
2023/02/14 02:56:45;;;;;;;23.17;10.80;;;7.30;99.90;;;;;;5084264;28;20498;-61
2023/02/14 02:59:18;;;;;;;20.10;9.90;;;7.60;99.90;;;;;;5085980;28;20748;-59
2023/02/14 03:01:49;;;;;;;25.90;11.53;;;7.30;99.90;;;;;;5085882;28;20529;-63
2023/02/14 03:09:53;;;;;;;26.40;11.30;;;7.30;99.90;;;;;;5097854;28;20425;-62
2023/02/14 03:12:42;;;;;;;27.63;11.03;;;7.30;99.90;;;;;;5097654;28;20434;-60
2023/02/14 03:15:18;;;;;;;20.90;10.27;;;7.30;99.90;;;;;;5098114;28;20466;-62
2023/02/14 03:17:55;;;;;;;23.50;11.20;;;7.30;99.90;;;;;;5098059;28;20458;-61
2023/02/14 03:20:25;;;;;;;20.13;10.33;;;7.30;99.90;;;;;;5098311;28;20466;-60
2023/02/14 03:23:04;;;;;;;23.57;11.20;;;7.30;99.90;;;;;;5098055;28;20422;-61
2023/02/14 03:25:42;;;;;;;24.83;10.30;;;7.80;99.90;;;;;;5097641;28;20473;-61
2023/02/14 03:28:14;;;;;;;29.50;11.27;;;7.30;99.90;;;;;;5097166;28;20439;-62
2023/02/14 03:30:51;;;;;;;21.17;8.93;;;7.30;99.90;;;;;;5097619;28;20430;-62
2023/02/14 03:33:25;;;;;;;20.57;10.40;;;7.30;99.90;;;;;;5097855;28;20473;-63
2023/02/14 03:36:00;;;;;;;23.63;11.27;;;7.40;99.90;;;;;;5098424;28;20450;-57
2023/02/14 03:38:33;;;;;;;21.57;11.57;;;7.30;99.90;;;;;;5097741;28;20454;-60
2023/02/14 03:41:05;;;;;;;22.93;11.67;;;7.30;99.90;;;;;;5098167;28;20450;-61
2023/02/14 03:43:35;;;;;;;24.13;11.33;;;7.50;99.90;;;;;;5098155;28;20438;-62
2023/02/14 03:46:10;;;;;;;22.80;10.13;;;7.30;99.90;;;;;;5097922;28;20526;-61
2023/02/14 03:48:39;;;;;;;23.80;11.80;;;7.30;99.90;;;;;;5095175;28;20848;-61
2023/02/14 03:51:10;;;;;;;23.73;11.27;;;7.30;99.90;;;;;;5084421;28;20473;-60
2023/02/14 03:53:43;;;;;;;27.67;13.17;;;7.50;99.90;;;;;;5081728;28;20514;-62
2023/02/14 03:56:17;;;;;;;23.73;11.43;;;7.40;99.90;;;;;;5088543;28;20431;-63
2023/02/14 03:58:48;;;;;;;35.20;16.67;;;7.50;99.90;;;;;;5086634;28;20517;-61
2023/02/14 04:01:20;;;;;;;26.77;11.87;;;7.50;99.90;;;;;;5086332;28;20474;-59
2023/02/14 04:03:52;;;;;;;29.23;11.03;;;7.20;99.90;;;;;;5090236;28;20474;-56
2023/02/14 04:06:22;;;;;;;25.33;9.13;;;7.20;99.90;;;;;;5099344;28;20502;-62
2023/02/14 04:08:51;;;;;;;22.40;10.17;;;7.20;99.90;;;;;;5099223;28;20441;-59
2023/02/14 04:11:22;;;;;;;25.50;11.60;;;7.10;99.90;;;;;;5099172;28;20407;-53
2023/02/14 04:13:49;;;;;;;22.27;9.20;;;7.20;99.90;;;;;;5098681;28;20434;-63
2023/02/14 04:16:16;;;;;;;25.77;11.17;;;7.20;99.90;;;;;;5096847;28;20431;-64
2023/02/14 04:21:29;;;;;;;20.43;10.37;;;7.20;99.90;;;;;;5096700;28;20521;-62
2023/02/14 04:23:57;;;;;;;22.60;10.73;;;7.20;99.90;;;;;;5096152;28;20426;-60
2023/02/14 04:26:24;;;;;;;19.67;9.67;;;7.30;99.90;;;;;;5096380;28;20465;-62
2023/02/14 04:28:51;;;;;;;28.27;11.77;;;7.30;99.90;;;;;;5095958;28;20458;-61
2023/02/14 04:31:18;;;;;;;23.70;11.60;;;7.50;99.90;;;;;;5096671;28;20438;-61
2023/02/14 04:33:46;;;;;;;23.23;11.10;;;7.30;99.90;;;;;;5096751;28;20624;-62
2023/02/14 04:36:14;;;;;;;27.83;11.47;;;7.20;99.90;;;;;;5096434;28;20434;-62
2023/02/14 04:38:43;;;;;;;31.67;12.77;;;7.20;99.90;;;;;;5096457;28;20457;-61
2023/02/14 04:41:11;;;;;;;24.23;10.40;;;7.30;99.90;;;;;;5095982;28;20457;-58
2023/02/14 04:43:38;;;;;;;27.47;12.33;;;7.30;99.90;;;;;;5096360;28;20462;-62
2023/02/14 04:46:05;;;;;;;25.20;11.67;;;7.30;99.90;;;;;;5095766;28;20483;-62
2023/02/14 04:48:31;;;;;;;26.47;13.10;;;7.30;99.90;;;;;;5096136;28;20453;-63
2023/02/14 04:51:01;;;;;;;23.53;10.40;;;7.30;99.90;;;;;;5096351;28;20458;-63
2023/02/14 04:53:28;;;;;;;21.60;10.10;;;7.30;99.90;;;;;;5096558;28;20423;-62
2023/02/14 04:55:55;;;;;;;20.60;12.03;;;7.30;99.90;;;;;;5096348;28;20461;-62
2023/02/14 04:58:23;;;;;;;24.03;10.43;;;7.30;99.90;;;;;;5096304;28;20466;-61
2023/02/14 05:00:51;;;;;;;23.57;8.90;;;7.30;99.90;;;;;;5096088;28;20477;-58
2023/02/14 05:03:22;;;;;;;22.90;11.00;;;7.40;99.90;;;;;;5095948;28;20461;-62
2023/02/14 05:05:49;;;;;;;26.53;11.10;;;7.40;99.90;;;;;;5096293;28;20438;-60
2023/02/14 05:08:16;;;;;;;23.70;10.73;;;7.20;99.90;;;;;;5096192;28;20434;-61
2023/02/14 05:10:43;;;;;;;20.20;9.00;;;7.20;99.90;;;;;;5095765;28;20450;-63
2023/02/14 05:13:10;;;;;;;27.90;11.07;;;7.20;99.90;;;;;;5095853;28;20446;-61
2023/02/14 05:15:39;;;;;;;30.07;13.03;;;7.10;99.90;;;;;;5095517;28;20434;-57
2023/02/14 05:18:05;;;;;;;25.57;10.53;;;7.20;99.90;;;;;;5095764;28;20442;-63
2023/02/14 05:20:32;;;;;;;31.47;12.17;;;7.40;99.90;;;;;;5095975;28;20473;-61
2023/02/14 05:23:02;;;;;;;30.03;12.00;;;7.20;99.90;;;;;;5095985;28;20497;-60
2023/02/14 05:25:29;;;;;;;20.63;10.67;;;7.20;99.90;;;;;;5096817;28;20536;-60
2023/02/14 05:27:56;;;;;;;26.80;11.93;;;7.20;99.90;;;;;;5096871;28;20486;-61
2023/02/14 05:30:26;;;;;;;23.00;12.13;;;7.20;99.90;;;;;;5096168;28;20438;-57
2023/02/14 05:33:03;;;;;;;24.20;11.87;;;7.20;99.90;;;;;;5096063;28;20446;-64
2023/02/14 05:35:33;;;;;;;25.80;10.50;;;7.20;99.90;;;;;;5096250;28;20485;-61
2023/02/14 05:38:00;;;;;;;21.73;11.33;;;7.20;99.90;;;;;;5096504;28;20446;-63
2023/02/14 05:40:27;;;;;;;29.20;11.47;;;7.20;99.90;;;;;;5095831;28;20478;-61
2023/02/14 05:42:55;;;;;;;21.40;12.00;;;7.20;99.90;;;;;;5096323;28;20445;-59
2023/02/14 05:45:22;;;;;;;21.80;9.90;;;7.10;99.90;;;;;;5096026;28;20478;-63
2023/02/14 05:47:50;;;;;;;22.30;10.90;;;7.20;99.90;;;;;;5095804;28;20430;-62
2023/02/14 05:50:18;;;;;;;23.87;11.67;;;7.30;99.90;;;;;;5096218;28;20449;-61
2023/02/14 05:52:45;;;;;;;23.00;9.80;;;7.40;99.90;;;;;;5098563;28;20533;-62
2023/02/14 05:55:12;;;;;;;22.43;10.00;;;7.20;99.90;;;;;;5100622;28;20422;-61
2023/02/14 05:57:39;;;;;;;22.37;9.03;;;7.30;99.90;;;;;;5100709;28;20434;-57
2023/02/14 06:00:10;;;;;;;25.73;11.20;;;7.40;99.90;;;;;;5100304;28;20434;-61
2023/02/14 06:02:37;;;;;;;23.77;10.30;;;7.20;99.90;;;;;;5100363;28;20423;-61
2023/02/14 06:05:05;;;;;;;24.37;11.53;;;7.20;99.90;;;;;;5099625;28;20465;-60
2023/02/14 06:07:36;;;;;;;25.90;11.20;;;7.20;99.90;;;;;;5099255;28;20437;-58
2023/02/14 06:10:03;;;;;;;26.33;11.20;;;7.10;99.90;;;;;;5099181;28;20429;-59
2023/02/14 06:12:30;;;;;;;27.93;10.83;;;7.10;99.90;;;;;;5099313;28;20423;-61
2023/02/14 06:14:56;;;;;;;30.90;11.37;;;7.10;99.90;;;;;;5098612;28;20434;-62
2023/02/14 06:17:23;;;;;;;23.00;9.90;;;7.10;99.90;;;;;;5099072;28;20458;-60
2023/02/14 06:19:50;;;;;;;23.63;9.90;;;7.30;99.90;;;;;;5098904;28;20477;-60
2023/02/14 06:22:17;;;;;;;26.00;11.67;;;7.10;99.90;;;;;;5098937;28;20442;-63
2023/02/14 06:24:45;;;;;;;25.23;11.47;;;7.40;99.90;;;;;;5098859;28;20465;-63
2023/02/14 06:27:12;;;;;;;21.10;10.93;;;7.10;99.90;;;;;;5098972;28;20489;-62
2023/02/14 06:29:39;;;;;;;29.57;12.07;;;7.00;99.90;;;;;;5098709;28;20474;-63
2023/02/14 06:32:06;;;;;;;21.70;10.60;;;7.10;99.90;;;;;;5098761;28;20462;-62
2023/02/14 06:34:34;;;;;;;33.20;9.80;;;7.10;99.90;;;;;;5098777;28;20452;-61
2023/02/14 06:37:01;;;;;;;25.30;10.60;;;9.40;99.90;;;;;;5098747;28;20470;-62
2023/02/14 06:39:27;;;;;;;27.53;13.10;;;7.10;99.90;;;;;;5098659;28;20462;-62
2023/02/14 06:41:56;;;;;;;25.10;11.20;;;7.20;99.90;;;;;;5098179;28;20457;-58
2023/02/14 06:44:24;;;;;;;24.13;11.20;;;7.20;99.90;;;;;;5098535;28;20438;-60
2023/02/14 06:46:51;;;;;;;26.00;10.70;;;7.20;99.90;;;;;;5098796;28;20457;-60
2023/02/14 06:49:17;;;;;;;16.80;10.80;;;7.20;99.90;;;;;;5098438;28;20427;-63
2023/02/14 06:51:44;;;;;;;21.57;10.67;;;7.20;99.90;;;;;;5098484;28;20473;-61
2023/02/14 06:54:11;;;;;;;30.20;11.23;;;7.20;99.90;;;;;;5098093;28;20474;-62
2023/02/14 06:56:38;;;;;;;22.40;10.20;;;7.20;99.90;;;;;;5098347;28;20462;-63
2023/02/14 06:59:06;;;;;;;24.47;10.63;;;7.10;99.90;;;;;;5098289;28;20441;-62
2023/02/14 07:01:33;;;;;;;24.40;10.70;;;7.20;99.90;;;;;;5098381;28;20537;-61
2023/02/14 07:04:00;;;;;;;25.13;10.93;;;7.20;99.90;;;;;;5098219;28;20453;-62
2023/02/14 07:06:27;;;;;;;28.73;11.10;;;7.20;99.90;;;;;;5098104;28;20489;-62
2023/02/14 07:08:53;;;;;;;29.40;13.17;;;7.20;99.90;;;;;;5098183;28;20495;-63
2023/02/14 07:11:23;;;;;;;26.10;12.93;;;7.20;99.90;;;;;;5098369;28;20433;-62
2023/02/14 07:13:50;;;;;;;25.43;12.30;;;7.20;99.90;;;;;;5098373;28;20423;-61
2023/02/14 07:16:18;;;;;;;25.70;11.23;;;7.20;99.90;;;;;;5097635;28;20430;-63
2023/02/14 07:18:45;;;;;;;19.13;10.87;;;7.30;99.90;;;;;;5097552;28;20573;-63
2023/02/14 07:21:13;;;;;;;20.83;9.63;;;7.20;99.90;;;;;;5097644;28;20775;-63
2023/02/14 07:23:40;;;;;;;29.70;11.57;;;7.30;99.90;;;;;;5097749;28;20899;-64
2023/02/14 07:26:07;;;;;;;27.53;11.80;;;7.30;99.90;;;;;;5097668;28;20482;-64
2023/02/14 07:28:34;;;;;;;21.63;11.37;;;7.30;99.90;;;;;;5097613;28;20438;-64
2023/02/14 07:31:01;;;;;;;25.43;11.97;;;7.40;99.90;;;;;;5096767;28;20482;-63
2023/02/14 07:33:29;;;;;;;26.30;11.40;;;7.40;99.90;;;;;;5097805;28;20430;-62
2023/02/14 07:35:58;;;;;;;30.27;13.60;;;7.40;99.90;;;;;;5091206;28;20459;-63
2023/02/14 07:38:29;;;;;;;25.80;10.50;;;7.40;99.90;;;;;;5088095;28;20458;-64
2023/02/14 07:40:56;;;;;;;22.13;10.90;;;7.40;99.90;;;;;;5088310;28;20533;-61
2023/02/14 07:43:23;;;;;;;33.80;13.27;;;7.40;99.90;;;;;;5086618;28;20895;-63
2023/02/14 07:45:49;;;;;;;29.30;12.67;;;7.50;99.90;;;;;;5086374;28;20545;-61
2023/02/14 07:48:16;;;;;;;24.47;12.50;;;7.50;99.90;;;;;;5095864;28;20469;-59
2023/02/14 07:50:44;;;;;;;27.43;12.90;;;7.50;99.90;;;;;;5097895;28;20454;-61
2023/02/14 07:53:14;;;;;;;31.87;11.80;;;7.60;99.90;;;;;;5097470;28;20462;-59
2023/02/14 07:55:41;;;;;;;30.93;13.17;;;7.60;99.90;;;;;;5097155;28;20448;-61
2023/02/14 07:58:08;;;;;;;23.40;11.40;;;7.90;99.90;;;;;;5096802;28;20477;-64
2023/02/14 08:00:35;;;;;;;29.93;13.57;;;7.60;99.90;;;;;;5096946;28;20434;-63
2023/02/14 08:03:02;;;;;;;25.53;12.10;;;7.60;99.90;;;;;;5097223;28;20423;-63
2023/02/14 08:05:29;;;;;;;24.60;12.57;;;7.60;99.90;;;;;;5097086;28;20431;-63
2023/02/14 08:07:57;;;;;;;17.53;10.83;;;7.60;99.90;;;;;;5097102;28;20447;-59
2023/02/14 08:10:24;;;;;;;27.67;11.30;;;7.60;99.90;;;;;;5097077;28;20431;-62
2023/02/14 08:12:58;;;;;;;21.53;9.30;;;7.60;99.90;;;;;;5096653;28;20441;-60
2023/02/14 08:18:10;;;;;;;26.83;12.30;;;7.70;99.90;;;;;;5096834;28;20421;-60
2023/02/14 08:20:37;;;;;;;22.43;11.57;;;7.70;99.90;;;;;;5097090;28;20473;-61
2023/02/14 08:23:05;;;;;;;19.50;10.70;;;7.70;99.90;;;;;;5097015;28;20505;-63
2023/02/14 08:25:32;;;;;;;25.70;12.10;;;7.70;99.90;;;;;;5096776;28;20473;-60
2023/02/14 08:28:01;;;;;;;24.50;10.10;;;7.80;99.90;;;;;;5096278;28;20493;-60
2023/02/14 08:30:28;;;;;;;28.13;13.13;;;7.80;99.90;;;;;;5096112;28;20838;-60
2023/02/14 08:32:58;;;;;;;25.77;11.87;;;7.80;99.90;;;;;;5096626;28;20442;-62
2023/02/14 08:35:25;;;;;;;26.87;11.73;;;7.90;99.90;;;;;;5096149;28;20441;-60
2023/02/14 08:37:52;;;;;;;30.37;13.70;;;7.80;99.90;;;;;;5096770;28;20453;-61
2023/02/14 08:40:20;;;;;;;28.97;12.50;;;7.90;99.90;;;;;;5094721;28;20485;-63
2023/02/14 08:42:47;;;;;;;26.53;12.90;;;7.90;99.90;;;;;;5093792;28;20462;-64
2023/02/14 08:45:14;;;;;;;26.87;11.87;;;8.00;99.90;;;;;;5085669;28;20499;-63
2023/02/14 08:47:41;;;;;;;23.70;12.00;;;8.00;99.90;;;;;;5086027;28;20510;-65
2023/02/14 08:50:12;;;;;;;25.83;12.07;;;8.00;99.90;;;;;;5086612;28;20454;-60
2023/02/14 08:52:40;;;;;;;24.87;12.97;;;7.90;99.90;;;;;;5086426;28;20464;-61
2023/02/14 08:55:07;;;;;;;23.90;11.93;;;8.00;99.90;;;;;;5086185;28;20462;-61
2023/02/14 08:57:36;;;;;;;25.00;13.10;;;8.00;99.90;;;;;;5085539;28;20434;-62
2023/02/14 09:00:04;;;;;;;29.10;13.57;;;8.00;99.90;;;;;;5086108;28;20501;-63
2023/02/14 09:02:30;;;;;;;22.73;11.80;;;8.00;99.90;;;;;;5086164;28;20449;-62
2023/02/14 09:04:57;;;;;;;30.80;12.97;;;8.00;99.90;;;;;;5085890;28;20498;-63
2023/02/14 09:07:24;;;;;;;24.80;13.07;;;8.00;99.90;;;;;;5086996;28;20486;-60
2023/02/14 09:09:51;;;;;;;23.10;11.40;;;8.00;99.90;;;;;;5094052;28;20481;-61
2023/02/14 09:12:18;;;;;;;23.23;12.77;;;8.20;99.90;;;;;;5094327;28;20449;-61
2023/02/14 09:14:46;;;;;;;26.60;13.50;;;8.00;99.90;;;;;;5093919;28;20478;-64
2023/02/14 09:17:15;;;;;;;20.70;11.40;;;8.00;99.90;;;;;;5095066;28;20462;-61
2023/02/14 09:19:42;;;;;;;25.40;10.17;;;7.90;99.90;;;;;;5094561;28;20444;-62
2023/02/14 09:22:10;;;;;;;23.30;11.50;;;8.00;99.90;;;;;;5095060;28;20514;-61
2023/02/14 09:24:40;;;;;;;19.67;11.97;;;7.90;99.90;;;;;;5095155;28;20434;-62
2023/02/14 09:27:08;;;;;;;22.17;11.27;;;8.00;99.90;;;;;;5095670;28;20513;-60
2023/02/14 09:29:35;;;;;;;23.90;10.63;;;8.00;99.90;;;;;;5098386;28;20504;-62
2023/02/14 09:32:04;;;;;;;22.70;10.53;;;8.00;99.90;;;;;;5098313;28;20434;-60
2023/02/14 09:34:33;;;;;;;28.73;14.53;;;8.00;99.90;;;;;;5098886;28;20421;-61
2023/02/14 09:39:44;;;;;;;22.13;11.10;;;8.10;99.90;;;;;;5098521;28;20436;-60
2023/02/14 09:42:26;;;;;;;18.83;9.80;;;8.10;99.90;;;;;;5097414;28;20513;-63
2023/02/14 09:44:57;;;;;;;25.07;13.13;;;8.20;99.90;;;;;;5098256;28;20494;-61
2023/02/14 09:47:36;;;;;;;20.40;12.27;;;8.30;99.90;;;;;;5098981;28;20473;-63
2023/02/14 09:50:06;;;;;;;18.03;10.57;;;8.30;99.90;;;;;;5097676;28;20487;-62
2023/02/14 09:52:33;;;;;;;23.20;10.83;;;8.30;99.90;;;;;;5097659;28;20438;-61
2023/02/14 09:55:03;;;;;;;26.87;11.50;;;8.40;99.90;;;;;;5096446;28;20477;-62
2023/02/14 09:57:43;;;;;;;19.20;10.13;;;8.30;99.90;;;;;;5097308;28;20438;-62
2023/02/14 10:00:19;;;;;;;25.97;12.53;;;8.60;99.90;;;;;;5096840;28;20477;-62
2023/02/14 10:02:58;;;;;;;24.53;11.43;;;8.40;99.90;;;;;;5097888;28;20434;-63
2023/02/14 10:05:28;;;;;;;20.90;10.60;;;8.30;99.90;;;;;;5096980;28;20495;-61
2023/02/14 10:08:00;;;;;;;27.23;11.80;;;8.40;99.90;;;;;;5097195;28;20493;-63
2023/02/14 10:10:30;;;;;;;21.40;9.80;;;8.30;99.90;;;;;;5096980;28;20443;-60
2023/02/14 10:13:05;;;;;;;23.73;11.50;;;8.40;99.90;;;;;;5096964;28;20419;-59
2023/02/14 10:15:37;;;;;;;22.90;12.23;;;8.40;99.90;;;;;;5096603;28;20501;-62
2023/02/14 10:18:12;;;;;;;21.23;11.50;;;8.40;99.90;;;;;;5096119;28;20478;-61
2023/02/14 10:20:43;;;;;;;23.30;12.40;;;8.50;99.90;;;;;;5096249;28;20465;-64
2023/02/14 10:23:25;;;;;;;25.57;15.10;;;8.50;99.90;;;;;;5095498;28;20470;-63
2023/02/14 10:25:59;;;;;;;25.60;13.07;;;8.50;99.90;;;;;;5096387;28;20454;-60
2023/02/14 10:28:31;;;;;;;26.37;12.00;;;8.40;99.90;;;;;;5095223;28;20494;-61
2023/02/14 10:31:19;;;;;;;21.10;11.73;;;8.50;99.90;;;;;;5095533;28;20450;-60
2023/02/14 10:33:54;;;;;;;27.00;10.47;;;8.50;99.90;;;;;;5094916;28;20458;-61
2023/02/14 10:36:38;;;;;;;22.70;12.43;;;8.50;99.90;;;;;;5092598;28;20453;-61
2023/02/14 10:39:20;;;;;;;21.47;10.30;;;8.50;99.90;;;;;;5095003;28;20426;-62
2023/02/14 10:41:52;;;;;;;24.40;11.50;;;8.50;99.90;;;;;;5095755;28;20438;-62
2023/02/14 10:44:37;;;;;;;21.20;11.63;;;8.50;99.90;;;;;;5095870;28;20438;-61
2023/02/14 10:47:11;;;;;;;35.43;14.10;;;8.40;99.90;;;;;;5096000;28;20481;-63
2023/02/14 10:49:49;;;;;;;26.87;12.67;;;8.50;99.90;;;;;;5095893;28;20436;-61
2023/02/14 10:52:23;;;;;;;21.57;11.17;;;8.50;99.90;;;;;;5096294;28;20854;-61
2023/02/14 10:54:54;;;;;;;25.10;12.40;;;8.70;99.90;;;;;;5096247;28;20446;-57
2023/02/14 10:57:26;;;;;;;20.37;11.47;;;8.40;99.90;;;;;;5095733;28;20433;-64
2023/02/14 10:59:57;;;;;;;30.70;14.23;;;8.40;99.90;;;;;;5096076;28;20457;-63
2023/02/14 11:02:30;;;;;;;27.57;12.20;;;8.30;99.90;;;;;;5095831;28;20473;-62
2023/02/14 11:04:59;;;;;;;18.90;11.20;;;8.40;99.90;;;;;;5096074;28;20426;-60
2023/02/14 11:07:26;;;;;;;21.53;10.80;;;8.40;99.90;;;;;;5095430;28;20489;-61
2023/02/14 11:09:53;;;;;;;25.93;13.20;;;8.50;99.90;;;;;;5095439;28;20458;-61
2023/02/14 11:12:36;;;;;;;30.07;11.67;;;8.50;99.90;;;;;;5095267;28;20434;-62
2023/02/14 11:15:18;;;;;;;25.10;13.70;;;8.50;99.90;;;;;;5095492;28;20447;-60
2023/02/14 11:17:45;;;;;;;20.27;11.60;;;8.50;99.90;;;;;;5075735;28;20434;-64
2023/02/14 11:20:25;;;;;;;23.23;12.73;;;8.70;99.90;;;;;;5075628;28;20546;-63
2023/02/14 11:22:52;;;;;;;25.10;14.67;;;8.70;99.90;;;;;;5076897;28;20427;-60
2023/02/14 11:25:21;;;;;;;19.70;12.13;;;8.60;99.90;;;;;;5079487;28;20796;-62
2023/02/14 11:27:51;;;;;;;33.73;15.50;;;8.80;99.90;;;;;;5088530;28;20516;-61
2023/02/14 11:30:22;;;;;;;31.93;13.40;;;8.90;99.90;;;;;;5094534;28;20497;-62
2023/02/14 11:32:54;;;;;;;22.80;11.00;;;8.70;99.90;;;;;;5094607;28;20484;-58
2023/02/14 11:35:26;;;;;;;24.40;11.37;;;8.90;99.90;;;;;;5094929;28;20486;-62
2023/02/14 11:37:55;;;;;;;20.73;10.63;;;8.90;99.90;;;;;;5094858;28;20427;-58
2023/02/14 11:40:30;;;;;;;19.40;10.83;;;8.80;99.90;;;;;;5094469;28;20453;-64
2023/02/14 11:42:59;;;;;;;21.33;10.17;;;8.80;99.90;;;;;;5094623;28;20438;-61
2023/02/14 11:45:33;;;;;;;19.40;10.40;;;8.90;99.90;;;;;;5094716;28;20447;-61
2023/02/14 11:48:15;;;;;;;17.03;9.67;;;8.80;99.90;;;;;;5093848;28;20461;-62
2023/02/14 11:50:52;;;;;;;23.30;11.67;;;8.80;99.90;;;;;;5093352;28;20446;-62
2023/02/14 11:53:23;;;;;;;23.00;11.10;;;8.80;99.90;;;;;;5094847;28;20454;-63
2023/02/14 11:55:54;;;;;;;23.43;12.10;;;8.80;99.90;;;;;;5094386;28;20427;-63
2023/02/14 11:58:32;;;;;;;17.37;10.63;;;8.90;99.90;;;;;;5094198;28;20795;-61
2023/02/14 12:01:01;;;;;;;20.10;11.07;;;8.70;99.90;;;;;;5094199;28;20882;-61
2023/02/14 12:03:29;;;;;;;22.30;11.10;;;8.70;99.90;;;;;;5093805;28;20534;-59
2023/02/14 12:06:00;;;;;;;25.77;11.63;;;8.60;99.90;;;;;;5094508;28;20430;-62
2023/02/14 12:08:31;;;;;;;20.40;11.60;;;8.60;99.90;;;;;;5093681;28;20471;-63
2023/02/14 12:11:03;;;;;;;23.47;9.50;;;8.70;99.90;;;;;;5093745;28;20427;-62
2023/02/14 12:13:31;;;;;;;17.77;8.87;;;8.60;99.90;;;;;;5093477;28;20453;-64
2023/02/14 12:15:59;;;;;;;19.50;10.53;;;8.60;99.90;;;;;;5094666;28;20474;-61
2023/02/14 12:18:39;;;;;;;23.10;12.57;;;8.60;99.90;;;;;;5094166;28;20442;-62
2023/02/14 12:21:27;;;;;;;20.30;10.50;;;8.60;99.90;;;;;;5093584;28;20458;-62
2023/02/14 12:24:03;;;;;;;21.07;10.73;;;8.60;99.90;;;;;;5094241;28;20486;-62
2023/02/14 12:26:34;;;;;;;21.93;10.00;;;8.60;99.90;;;;;;5093303;28;20529;-62
2023/02/14 12:29:12;;;;;;;16.97;8.73;;;8.70;99.90;;;;;;5093795;28;20466;-63
2023/02/14 12:31:39;;;;;;;17.40;9.60;;;8.70;99.90;;;;;;5094212;28;20482;-63
2023/02/14 12:34:06;;;;;;;18.27;11.40;;;8.70;99.90;;;;;;5093803;28;20498;-60
2023/02/14 12:36:55;;;;;;;18.97;10.30;;;8.70;99.90;;;;;;5093499;28;20462;-59
2023/02/14 12:39:34;;;;;;;22.37;11.17;;;8.70;99.90;;;;;;5094109;28;20480;-64
2023/02/14 12:42:13;;;;;;;21.90;10.60;;;8.70;99.90;;;;;;5094127;28;20761;-58
2023/02/14 12:44:50;;;;;;;24.00;12.20;;;8.70;99.90;;;;;;5093623;28;20963;-59
2023/02/14 12:47:21;;;;;;;23.30;11.50;;;8.60;99.90;;;;;;5093855;28;20524;-60
2023/02/14 12:50:30;;;;;;;24.37;11.57;;;8.60;99.90;;;;;;5094379;28;20426;-61
2023/02/14 12:53:24;;;;;;;17.93;10.00;;;8.50;99.90;;;;;;5093775;28;20423;-62
2023/02/14 12:56:05;;;;;;;25.23;10.93;;;8.50;99.90;;;;;;5093712;28;20457;-61
2023/02/14 12:58:44;;;;;;;21.23;9.83;;;8.50;99.90;;;;;;5096488;28;20473;-60
2023/02/14 13:01:35;;;;;;;21.33;10.70;;;8.60;99.90;;;;;;5098130;28;20441;-62
2023/02/14 13:04:33;;;;;;;24.10;11.40;;;8.60;99.90;;;;;;5100784;28;20418;-61
2023/02/14 13:07:07;;;;;;;17.53;10.93;;;8.60;99.90;;;;;;5100710;28;20446;-62
2023/02/14 13:09:44;;;;;;;27.27;11.67;;;8.50;99.90;;;;;;5100942;28;20432;-64
2023/02/14 13:12:24;;;;;;;18.80;9.80;;;8.40;99.90;;;;;;5100982;28;20426;-60
2023/02/14 13:15:00;;;;;;;21.17;10.20;;;8.40;99.90;;;;;;5100526;28;20466;-58
2023/02/14 13:17:33;;;;;;;16.30;10.77;;;8.50;99.90;;;;;;5100661;28;20413;-62
2023/02/14 13:20:12;;;;;;;24.27;12.80;;;8.50;99.90;;;;;;5100729;28;20423;-61